sensor_id;sensor_type;location;lat;lon;timestamp;pressure;altitude;pressure_sealevel;temperature;humidity
51781;BME280;37844;57.126;24.288;2023-05-02T00:01:41;101350.53;;;7.11;100.00
51781;BME280;37844;57.126;24.288;2023-05-02T00:04:24;101352.31;;;7.14;100.00
51781;BME280;37844;57.126;24.288;2023-05-02T00:07:09;101345.56;;;7.16;100.00
51781;BME280;37844;57.126;24.288;2023-05-02T00:09:53;101347.19;;;7.14;100.00
51781;BME280;37844;57.126;24.288;2023-05-02T00:12:37;101342.13;;;7.15;100.00
51781;BME280;37844;57.126;24.288;2023-05-02T00:15:21;101341.09;;;7.10;100.00
51781;BME280;37844;57.126;24.288;2023-05-02T00:18:05;101337.94;;;7.17;100.00
51781;BME280;37844;57.126;24.288;2023-05-02T00:20:49;101341.91;;;7.09;100.00
51781;BME280;37844;57.126;24.288;2023-05-02T00:23:33;101332.59;;;7.11;100.00
51781;BME280;37844;57.126;24.288;2023-05-02T00:26:17;101327.59;;;7.14;100.00
51781;BME280;37844;57.126;24.288;2023-05-02T00:29:01;101324.19;;;7.15;100.00
51781;BME280;37844;57.126;24.288;2023-05-02T00:31:45;101313.28;;;7.21;100.00
51781;BME280;37844;57.126;24.288;2023-05-02T00:34:29;101308.91;;;7.18;100.00
51781;BME280;37844;57.126;24.288;2023-05-02T00:37:14;101311.63;;;7.23;100.00
51781;BME280;37844;57.126;24.288;2023-05-02T00:39:58;101304.97;;;7.28;99.99
51781;BME280;37844;57.126;24.288;2023-05-02T00:42:42;101299.09;;;7.31;98.96
51781;BME280;37844;57.126;24.288;2023-05-02T00:45:26;101286.94;;;7.25;99.44
51781;BME280;37844;57.126;24.288;2023-05-02T00:48:10;101285.97;;;7.21;99.79
51781;BME280;37844;57.126;24.288;2023-05-02T00:50:54;101287.53;;;7.18;100.00
51781;BME280;37844;57.126;24.288;2023-05-02T00:53:45;101288.53;;;7.21;100.00
51781;BME280;37844;57.126;24.288;2023-05-02T00:56:29;101284.28;;;7.22;99.96
51781;BME280;37844;57.126;24.288;2023-05-02T00:59:13;101287.03;;;7.28;100.00
51781;BME280;37844;57.126;24.288;2023-05-02T01:13:28;101271.78;;;7.31;99.64
51781;BME280;37844;57.126;24.288;2023-05-02T01:16:14;101254.78;;;7.35;98.52
51781;BME280;37844;57.126;24.288;2023-05-02T01:18:59;101259.56;;;7.50;97.70
51781;BME280;37844;57.126;24.288;2023-05-02T01:21:44;101250.19;;;7.50;96.73
51781;BME280;37844;57.126;24.288;2023-05-02T01:24:29;101253.69;;;7.52;96.58
51781;BME280;37844;57.126;24.288;2023-05-02T01:27:39;101253.63;;;7.51;96.22
51781;BME280;37844;57.126;24.288;2023-05-02T01:30:19;101254.56;;;7.54;96.18
51781;BME280;37844;57.126;24.288;2023-05-02T01:33:04;101254.13;;;7.66;95.08
51781;BME280;37844;57.126;24.288;2023-05-02T01:35:50;101238.84;;;7.69;94.06
51781;BME280;37844;57.126;24.288;2023-05-02T01:38:35;101244.06;;;7.72;94.55
51781;BME280;37844;57.126;24.288;2023-05-02T01:41:20;101238.94;;;7.72;93.24
51781;BME280;37844;57.126;24.288;2023-05-02T01:44:05;101230.53;;;7.78;92.96
51781;BME280;37844;57.126;24.288;2023-05-02T01:46:50;101226.88;;;7.70;93.41
51781;BME280;37844;57.126;24.288;2023-05-02T01:49:35;101225.31;;;7.75;93.60
51781;BME280;37844;57.126;24.288;2023-05-02T01:52:20;101225.19;;;7.70;93.35
51781;BME280;37844;57.126;24.288;2023-05-02T01:55:06;101215.13;;;7.76;92.83
51781;BME280;37844;57.126;24.288;2023-05-02T01:57:52;101222.06;;;7.80;92.64
51781;BME280;37844;57.126;24.288;2023-05-02T02:00:37;101212.56;;;7.76;92.16
51781;BME280;37844;57.126;24.288;2023-05-02T02:03:22;101209.16;;;7.77;92.12
51781;BME280;37844;57.126;24.288;2023-05-02T02:06:06;101201.44;;;7.77;91.73
51781;BME280;37844;57.126;24.288;2023-05-02T02:08:51;101200.53;;;7.75;91.87
51781;BME280;37844;57.126;24.288;2023-05-02T02:12:19;101199.59;;;7.73;92.26
51781;BME280;37844;57.126;24.288;2023-05-02T02:14:44;101186.78;;;7.73;91.55
51781;BME280;37844;57.126;24.288;2023-05-02T02:17:31;101183.63;;;7.82;91.55
51781;BME280;37844;57.126;24.288;2023-05-02T02:20:19;101186.19;;;7.82;90.84
51781;BME280;37844;57.126;24.288;2023-05-02T02:23:05;101176.72;;;7.79;91.58
51781;BME280;37844;57.126;24.288;2023-05-02T02:25:51;101188.44;;;7.71;91.38
51781;BME280;37844;57.126;24.288;2023-05-02T02:28:36;101180.06;;;7.77;91.39
51781;BME280;37844;57.126;24.288;2023-05-02T02:31:20;101175.09;;;7.83;90.96
51781;BME280;37844;57.126;24.288;2023-05-02T02:34:04;101189.59;;;7.81;90.73
51781;BME280;37844;57.126;24.288;2023-05-02T02:42:38;101167.38;;;7.81;90.00
51781;BME280;37844;57.126;24.288;2023-05-02T02:45:29;101160.44;;;7.79;89.79
51781;BME280;37844;57.126;24.288;2023-05-02T02:48:24;101162.47;;;7.89;90.06
51781;BME280;37844;57.126;24.288;2023-05-02T02:51:18;101158.06;;;7.85;88.83
51781;BME280;37844;57.126;24.288;2023-05-02T02:54:13;101159.97;;;7.92;89.31
51781;BME280;37844;57.126;24.288;2023-05-02T02:57:16;101159.03;;;7.89;89.45
51781;BME280;37844;57.126;24.288;2023-05-02T03:00:06;101153.22;;;7.94;88.85
51781;BME280;37844;57.126;24.288;2023-05-02T03:02:51;101150.75;;;7.97;89.17
51781;BME280;37844;57.126;24.288;2023-05-02T03:05:36;101149.06;;;7.98;89.33
51781;BME280;37844;57.126;24.288;2023-05-02T03:08:21;101145.72;;;8.02;88.70
51781;BME280;37844;57.126;24.288;2023-05-02T03:11:05;101148.22;;;7.99;89.28
51781;BME280;37844;57.126;24.288;2023-05-02T03:13:48;101148.28;;;8.02;88.75
51781;BME280;37844;57.126;24.288;2023-05-02T03:19:17;101144.00;;;8.01;89.33
51781;BME280;37844;57.126;24.288;2023-05-02T03:22:01;101138.94;;;8.04;89.06
51781;BME280;37844;57.126;24.288;2023-05-02T03:24:45;101143.13;;;8.00;89.29
51781;BME280;37844;57.126;24.288;2023-05-02T03:27:28;101135.44;;;8.00;88.88
51781;BME280;37844;57.126;24.288;2023-05-02T03:30:15;101133.03;;;8.06;88.89
51781;BME280;37844;57.126;24.288;2023-05-02T03:32:58;101132.56;;;8.20;88.08
51781;BME280;37844;57.126;24.288;2023-05-02T03:35:44;101130.91;;;8.22;88.20
51781;BME280;37844;57.126;24.288;2023-05-02T03:38:28;101129.16;;;8.21;87.72
51781;BME280;37844;57.126;24.288;2023-05-02T03:41:12;101126.78;;;8.27;87.74
51781;BME280;37844;57.126;24.288;2023-05-02T03:43:56;101120.19;;;8.35;87.19
51781;BME280;37844;57.126;24.288;2023-05-02T03:46:40;101135.00;;;8.44;86.70
51781;BME280;37844;57.126;24.288;2023-05-02T03:49:24;101115.59;;;8.55;85.65
51781;BME280;37844;57.126;24.288;2023-05-02T03:52:08;101128.72;;;8.66;84.81
51781;BME280;37844;57.126;24.288;2023-05-02T03:54:52;101128.16;;;8.76;84.12
51781;BME280;37844;57.126;24.288;2023-05-02T03:57:36;101125.06;;;8.88;82.39
51781;BME280;37844;57.126;24.288;2023-05-02T04:00:27;101124.22;;;8.89;83.07
51781;BME280;37844;57.126;24.288;2023-05-02T04:03:10;101114.09;;;8.97;82.22
51781;BME280;37844;57.126;24.288;2023-05-02T04:05:54;101120.25;;;9.02;82.04
51781;BME280;37844;57.126;24.288;2023-05-02T04:08:38;101117.81;;;9.06;80.78
51781;BME280;37844;57.126;24.288;2023-05-02T04:11:22;101102.63;;;9.17;79.93
51781;BME280;37844;57.126;24.288;2023-05-02T04:14:06;101098.41;;;9.19;79.78
51781;BME280;37844;57.126;24.288;2023-05-02T04:16:50;101100.34;;;9.29;79.42
51781;BME280;37844;57.126;24.288;2023-05-02T04:19:35;101095.34;;;9.36;78.83
51781;BME280;37844;57.126;24.288;2023-05-02T04:22:18;101098.06;;;9.42;78.42
51781;BME280;37844;57.126;24.288;2023-05-02T04:25:02;101100.84;;;9.51;76.93
51781;BME280;37844;57.126;24.288;2023-05-02T04:27:46;101089.03;;;9.59;76.53
51781;BME280;37844;57.126;24.288;2023-05-02T04:30:30;101088.25;;;9.63;76.97
51781;BME280;37844;57.126;24.288;2023-05-02T04:33:15;101096.13;;;9.69;75.60
51781;BME280;37844;57.126;24.288;2023-05-02T04:35:59;101103.94;;;9.74;74.23
51781;BME280;37844;57.126;24.288;2023-05-02T04:38:44;101093.50;;;9.68;75.14
51781;BME280;37844;57.126;24.288;2023-05-02T04:41:27;101083.31;;;9.72;73.93
51781;BME280;37844;57.126;24.288;2023-05-02T04:44:11;101084.53;;;9.88;74.30
51781;BME280;37844;57.126;24.288;2023-05-02T04:46:56;101077.53;;;9.83;73.33
51781;BME280;37844;57.126;24.288;2023-05-02T04:49:39;101083.88;;;9.98;72.96
51781;BME280;37844;57.126;24.288;2023-05-02T04:52:24;101075.28;;;9.98;72.83
51781;BME280;37844;57.126;24.288;2023-05-02T04:55:08;101068.56;;;10.05;73.10
51781;BME280;37844;57.126;24.288;2023-05-02T04:57:52;101076.47;;;10.15;72.83
51781;BME280;37844;57.126;24.288;2023-05-02T05:00:36;101067.84;;;10.12;72.32
51781;BME280;37844;57.126;24.288;2023-05-02T05:03:20;101071.25;;;10.11;72.39
51781;BME280;37844;57.126;24.288;2023-05-02T05:06:04;101069.63;;;10.16;72.77
51781;BME280;37844;57.126;24.288;2023-05-02T05:08:48;101056.94;;;10.25;72.30
51781;BME280;37844;57.126;24.288;2023-05-02T05:11:33;101073.41;;;10.32;71.70
51781;BME280;37844;57.126;24.288;2023-05-02T05:14:16;101071.75;;;10.35;71.24
51781;BME280;37844;57.126;24.288;2023-05-02T05:17:01;101055.34;;;10.32;72.66
51781;BME280;37844;57.126;24.288;2023-05-02T05:19:45;101055.63;;;10.46;72.34
51781;BME280;37844;57.126;24.288;2023-05-02T05:22:29;101045.91;;;10.79;70.27
51781;BME280;37844;57.126;24.288;2023-05-02T05:25:13;101044.25;;;10.83;69.82
51781;BME280;37844;57.126;24.288;2023-05-02T05:28:01;101039.31;;;10.97;70.05
51781;BME280;37844;57.126;24.288;2023-05-02T05:30:45;101035.25;;;11.11;69.07
51781;BME280;37844;57.126;24.288;2023-05-02T05:33:29;101057.94;;;11.32;68.57
51781;BME280;37844;57.126;24.288;2023-05-02T05:36:13;101034.09;;;11.50;67.55
51781;BME280;37844;57.126;24.288;2023-05-02T05:38:57;101031.00;;;11.77;66.82
51781;BME280;37844;57.126;24.288;2023-05-02T05:41:41;101030.34;;;11.91;66.29
51781;BME280;37844;57.126;24.288;2023-05-02T05:44:26;101028.72;;;11.99;65.28
51781;BME280;37844;57.126;24.288;2023-05-02T05:47:09;101023.78;;;12.20;65.18
51781;BME280;37844;57.126;24.288;2023-05-02T05:49:54;101031.91;;;12.57;64.21
51781;BME280;37844;57.126;24.288;2023-05-02T05:52:38;101016.53;;;12.74;63.13
51781;BME280;37844;57.126;24.288;2023-05-02T05:55:22;101020.38;;;13.25;62.40
51781;BME280;37844;57.126;24.288;2023-05-02T05:58:06;101011.91;;;13.49;60.87
51781;BME280;37844;57.126;24.288;2023-05-02T06:00:50;101008.56;;;13.72;60.40
51781;BME280;37844;57.126;24.288;2023-05-02T06:03:34;101009.47;;;13.80;59.65
51781;BME280;37844;57.126;24.288;2023-05-02T06:06:18;101025.06;;;13.91;59.23
51781;BME280;37844;57.126;24.288;2023-05-02T06:09:02;101019.06;;;14.16;58.33
51781;BME280;37844;57.126;24.288;2023-05-02T06:11:46;101018.28;;;14.53;57.62
51781;BME280;37844;57.126;24.288;2023-05-02T06:14:30;101019.19;;;14.79;56.86
51781;BME280;37844;57.126;24.288;2023-05-02T06:17:14;101017.47;;;14.72;56.64
51781;BME280;37844;57.126;24.288;2023-05-02T06:19:58;101015.72;;;14.90;56.79
51781;BME280;37844;57.126;24.288;2023-05-02T06:22:42;101003.53;;;15.36;56.29
51781;BME280;37844;57.126;24.288;2023-05-02T06:25:26;101016.44;;;15.65;55.03
51781;BME280;37844;57.126;24.288;2023-05-02T06:28:10;101016.47;;;15.47;54.08
51781;BME280;37844;57.126;24.288;2023-05-02T06:31:00;101015.59;;;15.56;53.67
51781;BME280;37844;57.126;24.288;2023-05-02T06:33:45;101014.00;;;14.92;54.17
51781;BME280;37844;57.126;24.288;2023-05-02T06:36:29;101001.03;;;14.76;54.34
51781;BME280;37844;57.126;24.288;2023-05-02T06:39:14;100995.81;;;15.04;53.77
51781;BME280;37844;57.126;24.288;2023-05-02T06:41:58;100991.47;;;15.11;54.32
51781;BME280;37844;57.126;24.288;2023-05-02T06:44:42;100994.97;;;14.93;53.79
51781;BME280;37844;57.126;24.288;2023-05-02T06:47:26;100990.63;;;14.87;54.99
51781;BME280;37844;57.126;24.288;2023-05-02T06:50:11;100997.47;;;15.43;54.71
51781;BME280;37844;57.126;24.288;2023-05-02T06:52:54;100990.16;;;16.27;52.60
51781;BME280;37844;57.126;24.288;2023-05-02T06:55:38;100975.72;;;15.66;52.15
51781;BME280;37844;57.126;24.288;2023-05-02T06:58:22;100980.91;;;15.67;52.86
51781;BME280;37844;57.126;24.288;2023-05-02T07:01:07;100968.53;;;16.19;52.44
51781;BME280;37844;57.126;24.288;2023-05-02T07:03:50;100974.50;;;16.38;51.66
51781;BME280;37844;57.126;24.288;2023-05-02T07:06:35;100964.75;;;16.61;52.28
51781;BME280;37844;57.126;24.288;2023-05-02T07:09:19;100972.03;;;17.21;51.21
51781;BME280;37844;57.126;24.288;2023-05-02T07:12:03;100957.69;;;17.59;49.76
51781;BME280;37844;57.126;24.288;2023-05-02T07:14:47;100957.47;;;17.02;49.44
51781;BME280;37844;57.126;24.288;2023-05-02T07:17:31;100942.31;;;17.36;49.41
51781;BME280;37844;57.126;24.288;2023-05-02T07:20:15;100927.75;;;17.20;49.36
51781;BME280;37844;57.126;24.288;2023-05-02T07:22:59;100948.28;;;16.58;49.60
51781;BME280;37844;57.126;24.288;2023-05-02T07:25:43;100946.81;;;16.24;50.17
51781;BME280;37844;57.126;24.288;2023-05-02T07:28:27;100938.38;;;15.95;51.25
51781;BME280;37844;57.126;24.288;2023-05-02T07:31:11;100936.69;;;15.80;51.54
51781;BME280;37844;57.126;24.288;2023-05-02T07:33:55;100928.75;;;16.06;51.75
51781;BME280;37844;57.126;24.288;2023-05-02T07:36:39;100926.75;;;16.37;51.09
51781;BME280;37844;57.126;24.288;2023-05-02T07:39:23;100930.00;;;16.67;50.79
51781;BME280;37844;57.126;24.288;2023-05-02T07:42:08;100935.19;;;16.68;50.44
51781;BME280;37844;57.126;24.288;2023-05-02T07:44:51;100933.44;;;17.54;49.52
51781;BME280;37844;57.126;24.288;2023-05-02T07:47:35;100936.09;;;17.49;49.08
51781;BME280;37844;57.126;24.288;2023-05-02T07:50:19;100930.88;;;17.46;48.54
51781;BME280;37844;57.126;24.288;2023-05-02T07:53:03;100947.41;;;17.45;48.43
51781;BME280;37844;57.126;24.288;2023-05-02T07:55:47;100929.75;;;17.69;48.81
51781;BME280;37844;57.126;24.288;2023-05-02T07:58:31;100919.81;;;17.97;48.35
51781;BME280;37844;57.126;24.288;2023-05-02T08:01:15;100927.06;;;18.34;47.89
51781;BME280;37844;57.126;24.288;2023-05-02T08:04:00;100911.03;;;18.55;47.79
51781;BME280;37844;57.126;24.288;2023-05-02T08:06:44;100933.78;;;17.94;47.87
51781;BME280;37844;57.126;24.288;2023-05-02T08:09:28;100922.88;;;18.25;48.37
51781;BME280;37844;57.126;24.288;2023-05-02T08:12:12;100920.56;;;18.58;47.87
51781;BME280;37844;57.126;24.288;2023-05-02T08:14:56;100929.84;;;18.77;47.26
51781;BME280;37844;57.126;24.288;2023-05-02T08:17:40;100925.63;;;18.67;47.16
51781;BME280;37844;57.126;24.288;2023-05-02T08:20:30;100925.06;;;18.51;47.25
51781;BME280;37844;57.126;24.288;2023-05-02T08:23:14;100922.13;;;19.16;46.50
51781;BME280;37844;57.126;24.288;2023-05-02T08:25:58;100918.38;;;19.73;45.92
51781;BME280;37844;57.126;24.288;2023-05-02T08:28:42;100911.25;;;19.80;46.40
51781;BME280;37844;57.126;24.288;2023-05-02T08:31:26;100906.78;;;20.21;45.41
51781;BME280;37844;57.126;24.288;2023-05-02T08:34:10;100927.47;;;19.96;45.20
51781;BME280;37844;57.126;24.288;2023-05-02T08:36:58;100903.69;;;19.64;45.21
51781;BME280;37844;57.126;24.288;2023-05-02T08:39:41;100924.31;;;19.81;45.78
51781;BME280;37844;57.126;24.288;2023-05-02T08:42:26;100909.03;;;20.00;45.06
51781;BME280;37844;57.126;24.288;2023-05-02T08:45:12;100905.38;;;19.70;45.33
51781;BME280;37844;57.126;24.288;2023-05-02T08:47:57;100903.16;;;19.08;46.30
51781;BME280;37844;57.126;24.288;2023-05-02T08:50:42;100899.41;;;18.75;47.40
51781;BME280;37844;57.126;24.288;2023-05-02T08:53:29;100899.28;;;18.31;47.40
51781;BME280;37844;57.126;24.288;2023-05-02T08:56:14;100910.16;;;18.04;47.98
51781;BME280;37844;57.126;24.288;2023-05-02T08:58:58;100884.38;;;17.84;48.63
51781;BME280;37844;57.126;24.288;2023-05-02T09:01:42;100901.78;;;18.39;48.69
51781;BME280;37844;57.126;24.288;2023-05-02T09:04:29;100906.63;;;19.07;47.84
51781;BME280;37844;57.126;24.288;2023-05-02T09:07:14;100884.47;;;18.83;47.65
51781;BME280;37844;57.126;24.288;2023-05-02T09:09:58;100890.22;;;18.52;47.79
51781;BME280;37844;57.126;24.288;2023-05-02T09:12:42;100895.88;;;18.76;47.68
51781;BME280;37844;57.126;24.288;2023-05-02T09:15:26;100883.75;;;18.73;48.16
51781;BME280;37844;57.126;24.288;2023-05-02T09:18:18;100861.75;;;19.72;47.31
51781;BME280;37844;57.126;24.288;2023-05-02T09:21:06;100877.97;;;20.22;46.88
51781;BME280;37844;57.126;24.288;2023-05-02T09:23:54;100881.00;;;19.68;46.55
51781;BME280;37844;57.126;24.288;2023-05-02T09:26:38;100877.94;;;19.47;46.76
51781;BME280;37844;57.126;24.288;2023-05-02T09:29:22;100893.78;;;19.40;47.24
51781;BME280;37844;57.126;24.288;2023-05-02T09:32:06;100891.75;;;19.53;47.02
51781;BME280;37844;57.126;24.288;2023-05-02T09:35:03;100881.56;;;19.40;47.68
51781;BME280;37844;57.126;24.288;2023-05-02T09:37:57;100872.31;;;19.64;47.14
51781;BME280;37844;57.126;24.288;2023-05-02T09:40:52;100864.00;;;19.86;46.80
51781;BME280;37844;57.126;24.288;2023-05-02T09:43:36;100872.41;;;19.19;47.15
51781;BME280;37844;57.126;24.288;2023-05-02T09:46:21;100875.88;;;18.78;48.09
51781;BME280;37844;57.126;24.288;2023-05-02T09:49:04;100879.28;;;18.30;48.47
51781;BME280;37844;57.126;24.288;2023-05-02T09:51:48;100871.25;;;18.41;48.30
51781;BME280;37844;57.126;24.288;2023-05-02T09:54:33;100876.47;;;18.42;47.99
51781;BME280;37844;57.126;24.288;2023-05-02T09:57:18;100877.66;;;18.23;48.73
51781;BME280;37844;57.126;24.288;2023-05-02T10:00:03;100875.53;;;17.94;49.07
51781;BME280;37844;57.126;24.288;2023-05-02T10:02:48;100865.75;;;18.07;49.41
51781;BME280;37844;57.126;24.288;2023-05-02T10:05:36;100867.84;;;18.37;49.50
51781;BME280;37844;57.126;24.288;2023-05-02T10:08:23;100882.00;;;18.74;50.05
51781;BME280;37844;57.126;24.288;2023-05-02T10:11:07;100881.53;;;19.00;48.88
51781;BME280;37844;57.126;24.288;2023-05-02T10:13:51;100877.56;;;18.80;48.33
51781;BME280;37844;57.126;24.288;2023-05-02T10:16:36;100860.56;;;18.56;48.25
51781;BME280;37844;57.126;24.288;2023-05-02T10:19:23;100863.78;;;18.71;49.54
51781;BME280;37844;57.126;24.288;2023-05-02T10:22:07;100918.78;;;18.60;48.75
51781;BME280;37844;57.126;24.288;2023-05-02T10:24:52;100847.13;;;18.30;49.10
51781;BME280;37844;57.126;24.288;2023-05-02T10:27:36;100873.88;;;17.87;49.42
51781;BME280;37844;57.126;24.288;2023-05-02T10:30:20;100873.84;;;17.90;49.87
51781;BME280;37844;57.126;24.288;2023-05-02T10:33:05;100848.63;;;17.92;50.66
51781;BME280;37844;57.126;24.288;2023-05-02T10:35:49;100853.00;;;17.90;50.71
51781;BME280;37844;57.126;24.288;2023-05-02T10:38:34;100852.25;;;17.80;50.32
51781;BME280;37844;57.126;24.288;2023-05-02T10:41:25;100846.16;;;17.81;50.01
51781;BME280;37844;57.126;24.288;2023-05-02T10:44:10;100847.66;;;17.96;51.04
51781;BME280;37844;57.126;24.288;2023-05-02T10:46:54;100848.50;;;17.98;50.41
51781;BME280;37844;57.126;24.288;2023-05-02T10:49:51;100845.59;;;17.57;50.33
51781;BME280;37844;57.126;24.288;2023-05-02T10:52:36;100844.69;;;17.60;50.39
51781;BME280;37844;57.126;24.288;2023-05-02T10:55:21;100847.66;;;17.35;50.71
51781;BME280;37844;57.126;24.288;2023-05-02T11:00:49;100861.78;;;17.17;51.16
51781;BME280;37844;57.126;24.288;2023-05-02T11:09:40;100861.34;;;16.80;53.26
51781;BME280;37844;57.126;24.288;2023-05-02T11:12:41;100872.69;;;16.71;53.67
51781;BME280;37844;57.126;24.288;2023-05-02T11:18:12;100860.63;;;16.66;54.22
51781;BME280;37844;57.126;24.288;2023-05-02T11:21:24;100860.75;;;16.52;54.99
51781;BME280;37844;57.126;24.288;2023-05-02T11:30:07;100866.03;;;16.41;55.91
51781;BME280;37844;57.126;24.288;2023-05-02T11:35:43;100864.44;;;16.28;57.05
51781;BME280;37844;57.126;24.288;2023-05-02T11:38:34;100868.75;;;16.30;56.59
51781;BME280;37844;57.126;24.288;2023-05-02T11:41:19;100879.09;;;16.37;56.50
51781;BME280;37844;57.126;24.288;2023-05-02T11:44:03;100871.38;;;16.26;56.60
51781;BME280;37844;57.126;24.288;2023-05-02T11:46:47;100874.88;;;16.20;57.25
51781;BME280;37844;57.126;24.288;2023-05-02T11:49:31;100873.22;;;16.13;57.34
51781;BME280;37844;57.126;24.288;2023-05-02T11:52:15;100878.41;;;16.16;57.48
51781;BME280;37844;57.126;24.288;2023-05-02T11:54:59;100885.38;;;16.09;58.60
51781;BME280;37844;57.126;24.288;2023-05-02T11:57:43;100883.63;;;16.08;59.17
51781;BME280;37844;57.126;24.288;2023-05-02T12:00:27;100881.91;;;16.12;58.89
51781;BME280;37844;57.126;24.288;2023-05-02T12:06:08;100888.94;;;15.98;58.94
51781;BME280;37844;57.126;24.288;2023-05-02T12:09:14;100887.13;;;16.06;59.21
51781;BME280;37844;57.126;24.288;2023-05-02T12:11:59;100905.38;;;16.04;59.12
51781;BME280;37844;57.126;24.288;2023-05-02T12:14:44;100949.50;;;16.12;58.77
51781;BME280;37844;57.126;24.288;2023-05-02T12:17:28;100960.38;;;14.65;75.28
51781;BME280;37844;57.126;24.288;2023-05-02T12:20:13;100975.81;;;13.92;86.50
51781;BME280;37844;57.126;24.288;2023-05-02T12:22:58;100987.78;;;13.55;92.80
51781;BME280;37844;57.126;24.288;2023-05-02T12:25:42;100997.03;;;13.21;98.22
51781;BME280;37844;57.126;24.288;2023-05-02T12:28:26;101003.81;;;13.02;100.00
51781;BME280;37844;57.126;24.288;2023-05-02T12:31:10;101016.56;;;12.77;100.00
51781;BME280;37844;57.126;24.288;2023-05-02T12:33:54;101014.75;;;12.67;100.00
51781;BME280;37844;57.126;24.288;2023-05-02T12:36:43;101035.16;;;12.38;100.00
51781;BME280;37844;57.126;24.288;2023-05-02T12:39:35;101039.38;;;12.28;100.00
51781;BME280;37844;57.126;24.288;2023-05-02T12:42:20;101053.06;;;12.19;100.00
51781;BME280;37844;57.126;24.288;2023-05-02T12:45:04;101066.34;;;11.80;100.00
51781;BME280;37844;57.126;24.288;2023-05-02T12:47:59;101061.84;;;11.66;100.00
51781;BME280;37844;57.126;24.288;2023-05-02T12:50:44;101076.22;;;11.48;100.00
51781;BME280;37844;57.126;24.288;2023-05-02T12:53:41;101079.38;;;11.28;100.00
51781;BME280;37844;57.126;24.288;2023-05-02T12:56:26;101096.44;;;11.18;100.00
51781;BME280;37844;57.126;24.288;2023-05-02T12:59:28;101100.44;;;11.01;100.00
51781;BME280;37844;57.126;24.288;2023-05-02T13:02:12;101116.41;;;10.80;100.00
51781;BME280;37844;57.126;24.288;2023-05-02T13:04:56;101141.78;;;10.58;100.00
51781;BME280;37844;57.126;24.288;2023-05-02T13:07:40;101147.59;;;10.47;100.00
51781;BME280;37844;57.126;24.288;2023-05-02T13:10:24;101152.28;;;10.25;100.00
51781;BME280;37844;57.126;24.288;2023-05-02T13:13:08;101170.31;;;10.27;100.00
51781;BME280;37844;57.126;24.288;2023-05-02T13:15:52;101184.56;;;10.09;100.00
51781;BME280;37844;57.126;24.288;2023-05-02T13:18:36;101190.34;;;9.99;100.00
51781;BME280;37844;57.126;24.288;2023-05-02T13:21:21;101188.31;;;9.86;100.00
51781;BME280;37844;57.126;24.288;2023-05-02T13:24:05;101185.47;;;9.75;100.00
51781;BME280;37844;57.126;24.288;2023-05-02T13:26:49;101196.50;;;9.69;100.00
51781;BME280;37844;57.126;24.288;2023-05-02T13:29:33;101203.44;;;9.37;100.00
51781;BME280;37844;57.126;24.288;2023-05-02T13:32:17;101201.09;;;9.46;100.00
51781;BME280;37844;57.126;24.288;2023-05-02T13:35:02;101209.72;;;9.47;100.00
51781;BME280;37844;57.126;24.288;2023-05-02T13:37:46;101216.34;;;9.39;100.00
51781;BME280;37844;57.126;24.288;2023-05-02T13:40:30;101238.91;;;9.16;100.00
51781;BME280;37844;57.126;24.288;2023-05-02T13:43:14;101243.25;;;8.86;100.00
51781;BME280;37844;57.126;24.288;2023-05-02T13:45:58;101254.13;;;8.76;100.00
51781;BME280;37844;57.126;24.288;2023-05-02T13:48:42;101271.41;;;8.82;100.00
51781;BME280;37844;57.126;24.288;2023-05-02T13:51:26;101271.47;;;8.85;100.00
51781;BME280;37844;57.126;24.288;2023-05-02T13:54:11;101293.84;;;8.87;100.00
51781;BME280;37844;57.126;24.288;2023-05-02T13:56:55;101289.38;;;8.82;100.00
51781;BME280;37844;57.126;24.288;2023-05-02T13:59:39;101298.59;;;8.74;100.00
51781;BME280;37844;57.126;24.288;2023-05-02T14:02:23;101293.97;;;8.62;100.00
51781;BME280;37844;57.126;24.288;2023-05-02T14:05:07;101302.75;;;8.70;100.00
51781;BME280;37844;57.126;24.288;2023-05-02T14:07:51;101310.38;;;8.67;100.00
51781;BME280;37844;57.126;24.288;2023-05-02T14:10:35;101311.09;;;8.63;100.00
51781;BME280;37844;57.126;24.288;2023-05-02T14:13:20;101316.66;;;8.48;100.00
51781;BME280;37844;57.126;24.288;2023-05-02T14:16:04;101316.28;;;8.37;100.00
51781;BME280;37844;57.126;24.288;2023-05-02T14:18:49;101318.66;;;8.57;100.00
51781;BME280;37844;57.126;24.288;2023-05-02T14:21:33;101324.81;;;8.63;100.00
51781;BME280;37844;57.126;24.288;2023-05-02T14:24:17;101335.25;;;8.68;100.00
51781;BME280;37844;57.126;24.288;2023-05-02T14:27:02;101350.22;;;8.54;100.00
51781;BME280;37844;57.126;24.288;2023-05-02T14:29:47;101351.50;;;8.67;100.00
51781;BME280;37844;57.126;24.288;2023-05-02T14:32:31;101361.50;;;8.58;100.00
51781;BME280;37844;57.126;24.288;2023-05-02T14:35:15;101360.84;;;8.38;100.00
51781;BME280;37844;57.126;24.288;2023-05-02T14:37:59;101378.38;;;8.24;100.00
51781;BME280;37844;57.126;24.288;2023-05-02T14:40:44;101389.06;;;8.11;100.00
51781;BME280;37844;57.126;24.288;2023-05-02T14:43:28;101398.84;;;7.95;100.00
51781;BME280;37844;57.126;24.288;2023-05-02T14:46:12;101402.56;;;7.79;100.00
51781;BME280;37844;57.126;24.288;2023-05-02T14:48:56;101408.66;;;7.83;100.00
51781;BME280;37844;57.126;24.288;2023-05-02T14:51:40;101410.63;;;7.66;100.00
51781;BME280;37844;57.126;24.288;2023-05-02T14:54:26;101423.47;;;7.66;100.00
51781;BME280;37844;57.126;24.288;2023-05-02T14:57:10;101434.28;;;7.81;100.00
51781;BME280;37844;57.126;24.288;2023-05-02T14:59:54;101447.97;;;7.58;100.00